Arar, Saudi Arabia
Current Conditions -  °F | °C
As of 1:00 AM on Thursday 23 Oct 2014 (Local Time) from OERR Reporting Station
Clear Clear  
Wind Chill: 59°   Ceiling: Unl
Heat Index: 59°   Visibility: 6mi
Dew Point: 43°   Wind: 8mph
Humidity: 55%   Direction: 70°ENE
Pressure: 30.09"   Gusts: NA
Location:  30.91°N, 41.14°E
Report Text: OERR 222200Z 07007KT CAVOK 15/06 Q1019 NOSIG
Loading
Personal Weather Stations






























Interactive Weather Map
Tropical Storm Tracking
New forecast layout! Learn more

10-Day Weather Forecast

Advertisements
Track Severe Weather on mobile